createdAt,value
2022-10-17T00:00:35.745Z,92.29
2022-10-17T00:03:02.490Z,92.59
2022-10-17T00:05:28.997Z,92.74
2022-10-17T00:07:55.558Z,93.18
2022-10-17T00:10:22.494Z,93.67
2022-10-17T00:12:50.796Z,93.89
2022-10-17T00:15:19.544Z,94.04
2022-10-17T00:17:45.984Z,94.30
2022-10-17T00:20:13.424Z,94.29
2022-10-17T00:22:39.972Z,94.40
2022-10-17T00:25:06.625Z,94.26
2022-10-17T00:27:37.628Z,94.37
2022-10-17T00:30:05.685Z,94.56
2022-10-17T00:32:32.139Z,95.04
2022-10-17T00:34:59.032Z,94.92
2022-10-17T00:37:25.448Z,95.44
2022-10-17T00:39:51.871Z,95.42
2022-10-17T00:42:18.288Z,95.93
2022-10-17T00:44:47.361Z,96.02
2022-10-17T00:47:17.241Z,96.17
2022-10-17T00:49:43.806Z,96.33
2022-10-17T00:52:36.947Z,96.73
2022-10-17T00:55:15.370Z,96.79
2022-10-17T00:57:42.973Z,96.92
2022-10-17T01:00:10.353Z,96.46
2022-10-17T01:02:37.428Z,96.35
2022-10-17T01:05:04.561Z,96.45
2022-10-17T01:07:34.701Z,96.95
2022-10-17T01:10:05.817Z,96.87
2022-10-17T01:13:00.354Z,97.02
2022-10-17T01:16:01.177Z,96.73
2022-10-17T01:18:36.512Z,96.89
2022-10-17T01:21:39.134Z,97.01
2022-10-17T01:24:32.157Z,97.04
2022-10-17T01:27:30.229Z,97.27
2022-10-17T01:30:09.932Z,97.22
2022-10-17T01:32:40.366Z,97.46
2022-10-17T01:35:15.962Z,97.88
2022-10-17T01:38:15.845Z,98.02
2022-10-17T01:40:49.643Z,97.81
2022-10-17T01:43:37.191Z,97.60
2022-10-17T01:46:12.864Z,97.56
2022-10-17T01:48:41.088Z,97.35
2022-10-17T01:51:29.079Z,97.31
2022-10-17T01:54:07.260Z,96.47
2022-10-17T01:56:35.109Z,96.34
2022-10-17T01:59:05.553Z,95.59
2022-10-17T02:01:32.356Z,95.07
2022-10-17T02:04:00.943Z,94.17
2022-10-17T02:06:27.734Z,93.33
2022-10-17T02:08:55.619Z,92.00
2022-10-17T02:11:24.238Z,90.52
2022-10-17T02:14:00.330Z,89.55
2022-10-17T02:16:37.508Z,89.08
2022-10-17T02:19:26.971Z,87.76
2022-10-17T02:22:12.860Z,86.94
2022-10-17T02:24:49.700Z,86.57
2022-10-17T02:27:35.255Z,85.85
2022-10-17T02:30:09.708Z,85.63
2022-10-17T02:32:55.765Z,85.12
2022-10-17T02:35:23.325Z,84.32
2022-10-17T02:37:51.121Z,83.78
2022-10-17T02:40:21.058Z,84.18
2022-10-17T02:42:48.153Z,83.65
2022-10-17T02:45:14.757Z,83.18
2022-10-17T02:47:52.511Z,81.85
2022-10-17T02:50:22.769Z,82.39
2022-10-17T02:52:55.975Z,81.69
2022-10-17T02:55:36.136Z,81.08
2022-10-17T02:58:07.161Z,80.67
2022-10-17T03:00:40.164Z,80.31
2022-10-17T03:03:42.225Z,79.24
2022-10-17T03:06:08.680Z,79.30
2022-10-17T03:08:35.460Z,79.48
2022-10-17T03:11:02.507Z,79.10
2022-10-17T03:13:30.541Z,78.97
2022-10-17T03:15:57.443Z,79.89
2022-10-17T03:18:24.149Z,80.52
2022-10-17T03:20:55.344Z,81.25
2022-10-17T03:23:21.728Z,82.02
2022-10-17T03:25:48.281Z,82.21
2022-10-17T03:28:15.764Z,82.83
2022-10-17T03:30:42.220Z,84.02
2022-10-17T03:33:09.200Z,84.64
2022-10-17T03:35:39.845Z,84.48
2022-10-17T03:38:07.483Z,84.39
2022-10-17T03:40:33.918Z,85.04
2022-10-17T03:43:00.519Z,84.88
2022-10-17T03:45:28.504Z,85.37
2022-10-17T03:47:55.788Z,86.55
2022-10-17T03:50:22.200Z,86.84
2022-10-17T03:52:49.228Z,86.50
2022-10-17T03:55:16.482Z,86.53
2022-10-17T03:57:45.429Z,87.34
2022-10-17T04:00:13.361Z,87.81
2022-10-17T04:02:51.233Z,88.17
2022-10-17T04:05:18.998Z,88.35
2022-10-17T04:07:46.393Z,88.58
2022-10-17T04:10:14.521Z,88.99
2022-10-17T04:12:41.665Z,89.30
2022-10-17T04:15:08.816Z,89.30
2022-10-17T04:17:38.102Z,89.44
2022-10-17T04:20:05.934Z,89.62
2022-10-17T04:22:32.407Z,89.89
2022-10-17T04:24:58.943Z,90.02
2022-10-17T04:27:31.484Z,90.34
2022-10-17T04:29:57.983Z,90.95
2022-10-17T04:32:25.792Z,90.87
2022-10-17T04:35:06.991Z,91.47
2022-10-17T04:37:33.436Z,91.57
2022-10-17T04:40:02.771Z,91.90
2022-10-17T04:42:32.091Z,91.71
2022-10-17T04:44:58.978Z,91.84
2022-10-17T04:47:26.480Z,91.66
2022-10-17T04:49:52.942Z,92.09
2022-10-17T04:52:21.689Z,92.24
2022-10-17T04:54:49.829Z,92.44
2022-10-17T04:57:17.150Z,92.58
2022-10-17T04:59:51.933Z,92.53
2022-10-17T05:02:24.955Z,92.37
2022-10-17T05:04:51.900Z,92.52
2022-10-17T05:07:19.923Z,93.10
2022-10-17T05:10:03.555Z,93.06
2022-10-17T05:12:31.780Z,92.92
2022-10-17T05:14:58.391Z,93.06
2022-10-17T05:17:26.045Z,93.04
2022-10-17T05:19:52.470Z,93.49
2022-10-17T05:22:19.025Z,93.51
2022-10-17T05:24:45.749Z,93.69
2022-10-17T05:27:13.337Z,93.83
2022-10-17T05:29:40.175Z,94.05
2022-10-17T05:32:32.670Z,94.24
2022-10-17T05:34:59.357Z,94.11
2022-10-17T05:37:26.268Z,94.13
2022-10-17T05:39:55.410Z,94.43
2022-10-17T05:42:22.176Z,94.28
2022-10-17T05:44:48.632Z,94.63
2022-10-17T05:47:17.864Z,94.61
2022-10-17T05:49:48.597Z,94.48
2022-10-17T05:52:20.784Z,94.45
2022-10-17T05:55:05.861Z,94.82
2022-10-17T05:57:32.360Z,94.88
2022-10-17T06:00:00.779Z,95.01
2022-10-17T06:02:29.175Z,94.67
2022-10-17T06:04:55.992Z,94.91
2022-10-17T06:07:23.736Z,94.79
2022-10-17T06:09:50.721Z,95.09
2022-10-17T06:12:17.719Z,95.41
2022-10-17T06:14:45.020Z,95.39
2022-10-17T06:17:16.071Z,95.46
2022-10-17T06:19:44.673Z,95.76
2022-10-17T06:22:12.407Z,95.65
2022-10-17T06:24:40.753Z,95.81
2022-10-17T06:27:11.020Z,95.65
2022-10-17T06:29:39.386Z,95.81
2022-10-17T06:32:08.655Z,95.62
2022-10-17T06:34:38.375Z,95.42
2022-10-17T06:37:04.876Z,95.39
2022-10-17T06:39:34.677Z,95.70
2022-10-17T06:42:08.156Z,95.65
2022-10-17T06:44:53.311Z,96.03
2022-10-17T06:47:22.380Z,95.78
2022-10-17T06:49:51.373Z,95.69
2022-10-17T06:52:29.296Z,96.06
2022-10-17T06:55:31.934Z,96.06
2022-10-17T06:58:13.168Z,95.66
2022-10-17T07:00:49.578Z,95.91
2022-10-17T07:03:17.253Z,95.60
2022-10-17T07:05:51.556Z,95.80
2022-10-17T07:08:17.984Z,96.07
2022-10-17T07:10:44.552Z,95.98
2022-10-17T07:13:11.000Z,96.19
2022-10-17T07:15:38.312Z,96.22
2022-10-17T07:18:05.637Z,95.98
2022-10-17T07:20:32.178Z,96.14
2022-10-17T07:22:58.584Z,96.34
2022-10-17T07:25:25.008Z,96.22
2022-10-17T07:27:55.959Z,96.21
2022-10-17T07:30:23.346Z,96.34
2022-10-17T07:32:58.557Z,96.12
2022-10-17T07:35:25.114Z,95.98
2022-10-17T07:37:51.857Z,95.89
2022-10-17T07:40:20.094Z,96.18
2022-10-17T07:42:47.199Z,96.21
2022-10-17T07:45:13.650Z,96.49
2022-10-17T07:47:42.980Z,96.41
2022-10-17T07:50:10.392Z,96.58
2022-10-17T07:52:36.839Z,96.38
2022-10-17T07:55:03.430Z,96.34
2022-10-17T07:57:29.829Z,96.41
2022-10-17T07:59:56.573Z,96.60
2022-10-17T08:02:27.155Z,96.26
2022-10-17T08:04:54.048Z,96.19
2022-10-17T08:07:25.327Z,96.41
2022-10-17T08:09:54.957Z,96.23
2022-10-17T08:12:21.885Z,95.83
2022-10-17T08:14:48.296Z,95.66
2022-10-17T08:17:14.727Z,95.67
2022-10-17T08:19:41.219Z,95.70
2022-10-17T08:22:08.012Z,95.68
2022-10-17T08:24:34.560Z,95.84
2022-10-17T08:27:01.264Z,95.69
2022-10-17T08:29:27.891Z,95.94
2022-10-17T08:31:58.672Z,95.81
2022-10-17T08:34:27.948Z,95.82
2022-10-17T08:36:54.382Z,96.06
2022-10-17T08:39:20.859Z,96.06
2022-10-17T08:42:05.881Z,96.27
2022-10-17T08:45:06.656Z,96.15
2022-10-17T08:47:37.295Z,96.00
2022-10-17T08:50:06.274Z,96.06
2022-10-17T08:52:32.555Z,95.83
2022-10-17T08:54:59.603Z,95.78
2022-10-17T08:57:26.031Z,95.56
2022-10-17T08:59:53.675Z,95.65
2022-10-17T09:02:38.511Z,95.52
2022-10-17T09:05:32.650Z,95.39
2022-10-17T09:08:31.865Z,95.31
2022-10-17T09:11:02.223Z,95.38
2022-10-17T09:14:00.660Z,95.13
2022-10-17T09:16:43.400Z,95.29
2022-10-17T09:19:17.427Z,95.24
2022-10-17T09:21:48.560Z,94.57
2022-10-17T09:24:22.337Z,94.33
2022-10-17T09:26:49.029Z,94.42
2022-10-17T09:29:20.260Z,94.34
2022-10-17T09:32:00.974Z,94.25
2022-10-17T09:34:28.516Z,94.47
2022-10-17T09:36:55.245Z,94.38
2022-10-17T09:39:24.557Z,94.61
2022-10-17T09:41:55.812Z,94.84
2022-10-17T09:44:31.072Z,94.88
2022-10-17T09:47:15.314Z,94.88
2022-10-17T09:49:44.366Z,94.73
2022-10-17T09:52:18.571Z,94.70
2022-10-17T09:54:57.565Z,94.35
2022-10-17T09:57:24.215Z,94.10
2022-10-17T10:00:03.070Z,93.10
2022-10-17T10:02:31.063Z,92.14
2022-10-17T10:05:05.916Z,90.89
2022-10-17T10:07:37.334Z,90.44
2022-10-17T10:10:06.627Z,89.21
2022-10-17T10:12:38.085Z,88.33
2022-10-17T10:15:31.357Z,88.07
2022-10-17T10:17:57.743Z,86.33
2022-10-17T10:20:30.583Z,84.76
2022-10-17T10:23:20.980Z,83.85
2022-10-17T10:25:54.801Z,83.88
2022-10-17T10:28:23.644Z,83.97
2022-10-17T10:30:51.221Z,83.27
2022-10-17T10:33:20.946Z,82.21
2022-10-17T10:35:59.571Z,81.39
2022-10-17T10:38:26.188Z,78.75
2022-10-17T10:41:02.980Z,79.64
2022-10-17T10:43:35.882Z,79.89
2022-10-17T10:46:04.516Z,79.63
2022-10-17T10:48:35.113Z,79.21
2022-10-17T10:51:12.410Z,77.96
2022-10-17T10:53:46.023Z,78.23
2022-10-17T10:56:26.133Z,77.57
2022-10-17T10:59:20.646Z,77.73
2022-10-17T11:01:51.904Z,77.64
2022-10-17T11:04:29.289Z,78.25
2022-10-17T11:07:02.184Z,76.44
2022-10-17T11:09:35.932Z,74.84
2022-10-17T11:12:07.552Z,74.94
2022-10-17T11:15:07.798Z,75.86
2022-10-17T11:17:42.704Z,75.16
2022-10-17T11:20:08.979Z,74.72
2022-10-17T11:22:43.144Z,74.41
2022-10-17T11:25:12.402Z,73.03
2022-10-17T11:27:38.931Z,72.17
2022-10-17T11:30:05.928Z,71.69
2022-10-17T11:32:45.001Z,71.79
2022-10-17T11:35:27.837Z,71.50
2022-10-17T11:38:36.333Z,71.43
2022-10-17T11:41:04.055Z,71.15
2022-10-17T11:43:42.211Z,71.35
2022-10-17T11:46:17.251Z,70.80
2022-10-17T11:48:48.844Z,70.59
2022-10-17T11:54:11.107Z,70.31
2022-10-17T11:56:55.747Z,69.67
2022-10-17T11:59:43.359Z,70.60
2022-10-17T12:02:15.265Z,70.31
2022-10-17T12:04:52.827Z,70.47
2022-10-17T12:07:55.566Z,69.67
2022-10-17T12:10:39.228Z,70.16
2022-10-17T12:13:28.246Z,68.71
2022-10-17T12:15:57.819Z,69.36
2022-10-17T12:18:25.553Z,68.99
2022-10-17T12:20:59.553Z,68.68
2022-10-17T12:23:28.079Z,68.60
2022-10-17T12:26:05.269Z,68.59
2022-10-17T12:28:38.138Z,68.30
2022-10-17T12:31:09.895Z,67.87
2022-10-17T12:33:49.392Z,67.80
2022-10-17T12:36:18.724Z,67.68
2022-10-17T12:38:49.934Z,68.20
2022-10-17T12:41:17.299Z,67.94
2022-10-17T12:46:42.787Z,68.22
2022-10-17T12:49:46.194Z,68.02
2022-10-17T12:52:21.827Z,68.16
2022-10-17T12:55:18.323Z,68.36
2022-10-17T12:57:58.521Z,68.88
2022-10-17T13:00:49.704Z,68.28
2022-10-17T13:03:26.793Z,68.17
2022-10-17T13:05:59.512Z,67.81
2022-10-17T13:08:40.011Z,67.73
2022-10-17T13:11:07.806Z,67.25
2022-10-17T13:13:47.435Z,67.59
2022-10-17T13:16:34.493Z,67.63
2022-10-17T13:19:02.512Z,67.40
2022-10-17T13:21:29.536Z,66.76
2022-10-17T13:23:56.285Z,66.72
2022-10-17T13:26:25.660Z,66.66
2022-10-17T13:29:13.625Z,66.90
2022-10-17T13:31:42.872Z,66.87
2022-10-17T13:34:20.824Z,67.04
2022-10-17T13:36:48.986Z,66.66
2022-10-17T13:39:23.040Z,66.61
2022-10-17T13:41:59.041Z,67.04
2022-10-17T13:44:32.848Z,66.86
2022-10-17T13:46:59.465Z,66.87
2022-10-17T13:49:42.451Z,67.33
2022-10-17T13:52:21.388Z,67.33
2022-10-17T13:54:53.711Z,67.21
2022-10-17T13:57:38.289Z,67.56
2022-10-17T14:00:11.407Z,67.26
2022-10-17T14:02:42.658Z,67.72
2022-10-17T14:05:18.246Z,67.45
2022-10-17T14:08:11.240Z,67.42
2022-10-17T14:10:40.435Z,66.94
2022-10-17T14:13:10.687Z,67.12
2022-10-17T14:15:37.587Z,67.25
2022-10-17T14:18:08.937Z,67.54
2022-10-17T14:23:46.291Z,67.79
2022-10-17T14:26:16.713Z,68.01
2022-10-17T14:28:46.881Z,68.47
2022-10-17T14:31:25.891Z,69.16
2022-10-17T14:33:52.700Z,69.83
2022-10-17T14:36:20.694Z,70.04
2022-10-17T14:38:50.020Z,70.84
2022-10-17T14:41:41.982Z,71.00
2022-10-17T14:44:20.437Z,71.45
2022-10-17T14:46:51.092Z,72.38
2022-10-17T14:49:24.777Z,72.36
2022-10-17T14:52:29.210Z,72.69
2022-10-17T14:54:56.637Z,73.30
2022-10-17T14:57:34.320Z,73.56
2022-10-17T15:00:00.700Z,73.72
2022-10-17T15:02:29.901Z,73.78
2022-10-17T15:04:56.790Z,74.19
2022-10-17T15:07:24.030Z,75.09
2022-10-17T15:09:52.224Z,75.06
2022-10-17T15:12:21.245Z,75.59
2022-10-17T15:14:51.491Z,75.78
2022-10-17T15:17:20.773Z,75.96
2022-10-17T15:19:47.948Z,75.61
2022-10-17T15:22:15.934Z,76.46
2022-10-17T15:24:42.340Z,76.43
2022-10-17T15:27:17.437Z,77.30
2022-10-17T15:29:44.018Z,77.00
2022-10-17T15:32:10.405Z,77.52
2022-10-17T15:34:36.948Z,77.55
2022-10-17T15:37:04.328Z,77.85
2022-10-17T15:39:30.754Z,77.76
2022-10-17T15:41:57.347Z,77.82
2022-10-17T15:44:23.732Z,78.29
2022-10-17T15:46:50.145Z,78.48
2022-10-17T15:49:18.490Z,78.51
2022-10-17T15:51:44.995Z,78.71
2022-10-17T15:56:43.280Z,78.95
2022-10-17T15:59:16.031Z,79.43
2022-10-17T16:01:42.571Z,79.27
2022-10-17T16:04:14.805Z,79.37
2022-10-17T16:06:44.679Z,79.14
2022-10-17T16:09:11.113Z,79.33
2022-10-17T16:11:40.134Z,79.33
2022-10-17T16:14:10.403Z,79.49
2022-10-17T16:16:36.827Z,79.44
2022-10-17T16:19:03.610Z,79.51
2022-10-17T16:21:32.684Z,79.48
2022-10-17T16:23:59.108Z,79.69
2022-10-17T16:26:25.484Z,79.77
2022-10-17T16:28:51.968Z,80.04
2022-10-17T16:31:22.472Z,80.41
2022-10-17T16:33:50.476Z,79.95
2022-10-17T16:36:16.944Z,80.21
2022-10-17T16:38:43.603Z,80.44
2022-10-17T16:41:20.304Z,80.70
2022-10-17T16:43:48.139Z,80.50
2022-10-17T16:46:14.615Z,80.65
2022-10-17T16:48:41.919Z,80.98
2022-10-17T16:51:08.384Z,80.86
2022-10-17T16:53:34.769Z,80.83
2022-10-17T17:27:48.333Z,83.10
2022-10-17T17:30:33.370Z,83.73
2022-10-17T17:36:32.664Z,83.95
2022-10-17T17:39:23.043Z,84.08
2022-10-17T17:42:02.223Z,83.90
2022-10-17T17:44:51.937Z,84.01
2022-10-17T17:47:46.212Z,83.87
2022-10-17T17:51:00.929Z,83.83
2022-10-17T17:53:47.159Z,84.01
2022-10-17T18:00:10.634Z,84.30
2022-10-17T18:03:20.578Z,84.23
2022-10-17T18:09:14.073Z,84.05
2022-10-17T18:12:26.486Z,84.13
2022-10-17T18:24:48.297Z,84.74
2022-10-17T18:37:14.499Z,85.26
2022-10-17T18:40:26.706Z,85.20
2022-10-17T18:43:31.978Z,85.15
2022-10-17T19:06:30.127Z,85.84
2022-10-17T19:18:27.114Z,85.90
2022-10-17T19:21:53.627Z,85.83
2022-10-17T19:27:31.604Z,86.44
2022-10-17T19:30:14.894Z,86.23
2022-10-17T19:35:53.982Z,86.57
2022-10-17T19:39:12.597Z,86.73
2022-10-17T19:45:19.196Z,86.69
2022-10-17T19:54:17.545Z,87.30
2022-10-17T20:00:21.399Z,87.35
2022-10-17T20:15:04.396Z,87.43
2022-10-17T20:20:54.173Z,87.11
2022-10-17T20:26:38.152Z,87.23
2022-10-17T20:32:39.505Z,87.04
2022-10-17T20:35:28.357Z,87.02
2022-10-17T20:38:08.663Z,86.94
2022-10-17T20:41:02.153Z,87.38
2022-10-17T20:43:39.826Z,86.89
2022-10-17T20:46:36.374Z,87.03
2022-10-17T20:58:02.921Z,86.74
2022-10-17T21:01:29.152Z,86.92
2022-10-17T21:04:47.590Z,86.88
2022-10-17T21:07:19.624Z,86.98
2022-10-17T21:13:14.789Z,87.02
2022-10-17T21:15:41.309Z,87.43
2022-10-17T21:18:07.825Z,87.30
2022-10-17T21:20:34.284Z,87.41
2022-10-17T21:23:00.781Z,87.54
2022-10-17T21:25:27.500Z,87.44
2022-10-17T21:27:54.063Z,87.78
2022-10-17T21:30:21.634Z,87.73
2022-10-17T21:32:51.639Z,87.66
2022-10-17T21:35:18.514Z,88.14
2022-10-17T21:37:44.950Z,87.78
2022-10-17T21:40:12.206Z,88.09
2022-10-17T21:42:38.664Z,88.08
2022-10-17T21:45:10.766Z,88.04
2022-10-17T21:47:54.874Z,88.20
2022-10-17T21:50:27.687Z,88.52
2022-10-17T21:52:54.165Z,88.50
2022-10-17T21:55:20.605Z,88.42
2022-10-17T21:57:47.121Z,88.46
2022-10-17T22:00:14.050Z,88.70
2022-10-17T22:02:40.459Z,88.68
2022-10-17T22:05:07.205Z,88.68
2022-10-17T22:07:33.981Z,88.82
2022-10-17T22:10:00.602Z,88.68
2022-10-17T22:12:27.139Z,88.76
2022-10-17T22:14:53.666Z,88.98
2022-10-17T22:17:20.121Z,89.28
2022-10-17T22:19:47.249Z,89.29
2022-10-17T22:22:13.882Z,89.62
2022-10-17T22:24:40.418Z,89.69
2022-10-17T22:27:07.078Z,89.54
2022-10-17T22:29:34.343Z,89.60
2022-10-17T22:32:00.766Z,89.62
2022-10-17T22:34:27.276Z,89.65
2022-10-17T22:36:53.989Z,89.56
2022-10-17T22:39:20.609Z,89.44
2022-10-17T22:41:47.121Z,89.64
2022-10-17T22:44:13.683Z,89.50
2022-10-17T22:46:40.150Z,89.35
2022-10-17T22:49:09.515Z,89.49
2022-10-17T22:51:35.998Z,89.36
2022-10-17T22:54:02.452Z,89.74
2022-10-17T22:56:28.923Z,89.87
2022-10-17T22:58:55.471Z,89.87
2022-10-17T23:01:23.459Z,90.08
2022-10-17T23:03:51.451Z,90.04
2022-10-17T23:06:20.815Z,90.51
2022-10-17T23:08:47.597Z,90.50
2022-10-17T23:11:14.082Z,90.77
2022-10-17T23:13:41.602Z,90.78
2022-10-17T23:16:08.369Z,90.88
2022-10-17T23:18:34.959Z,90.90
2022-10-17T23:21:01.397Z,91.11
2022-10-17T23:23:27.797Z,91.14
2022-10-17T23:25:54.272Z,91.23
2022-10-17T23:28:20.712Z,91.19
2022-10-17T23:30:47.168Z,91.30
2022-10-17T23:33:14.074Z,91.01
2022-10-17T23:35:40.660Z,91.29
2022-10-17T23:38:07.132Z,91.10
2022-10-17T23:40:34.741Z,91.46
2022-10-17T23:43:01.283Z,91.67
2022-10-17T23:45:27.776Z,91.70
2022-10-17T23:47:56.325Z,91.80
2022-10-17T23:50:22.713Z,92.03
2022-10-17T23:52:49.133Z,92.15
2022-10-17T23:55:16.151Z,91.92
2022-10-17T23:57:42.569Z,92.00
